sensor_id;sensor_type;location;lat;lon;timestamp;pressure;altitude;pressure_sealevel;temperature;humidity
804;BME280;25687;49.976;8.240;2023-05-08T00:00:16;100450.19;;;14.79;100.00
804;BME280;25687;49.976;8.240;2023-05-08T00:02:41;100448.63;;;14.76;100.00
804;BME280;25687;49.976;8.240;2023-05-08T00:05:07;100445.69;;;14.81;100.00
804;BME280;25687;49.976;8.240;2023-05-08T00:07:32;100445.28;;;14.87;100.00
804;BME280;25687;49.976;8.240;2023-05-08T00:09:57;100449.56;;;14.75;100.00
804;BME280;25687;49.976;8.240;2023-05-08T00:12:23;100447.59;;;14.79;100.00
804;BME280;25687;49.976;8.240;2023-05-08T00:14:48;100443.56;;;14.88;100.00
804;BME280;25687;49.976;8.240;2023-05-08T00:17:13;100447.16;;;14.72;100.00
804;BME280;25687;49.976;8.240;2023-05-08T00:19:38;100445.03;;;14.51;100.00
804;BME280;25687;49.976;8.240;2023-05-08T00:22:04;100446.69;;;14.52;100.00
804;BME280;25687;49.976;8.240;2023-05-08T00:24:29;100439.97;;;14.50;100.00
804;BME280;25687;49.976;8.240;2023-05-08T00:26:54;100436.41;;;14.38;100.00
804;BME280;25687;49.976;8.240;2023-05-08T00:29:20;100453.88;;;14.34;100.00
804;BME280;25687;49.976;8.240;2023-05-08T00:31:45;100441.88;;;14.33;100.00
804;BME280;25687;49.976;8.240;2023-05-08T00:34:10;100447.44;;;14.27;100.00
804;BME280;25687;49.976;8.240;2023-05-08T00:36:36;100453.22;;;14.18;100.00
804;BME280;25687;49.976;8.240;2023-05-08T00:39:01;100449.94;;;14.29;100.00
804;BME280;25687;49.976;8.240;2023-05-08T00:41:26;100447.56;;;14.26;100.00
804;BME280;25687;49.976;8.240;2023-05-08T00:43:51;100446.00;;;14.23;100.00
804;BME280;25687;49.976;8.240;2023-05-08T00:46:17;100453.75;;;14.23;100.00
804;BME280;25687;49.976;8.240;2023-05-08T00:48:42;100453.53;;;14.26;100.00
804;BME280;25687;49.976;8.240;2023-05-08T00:51:09;100455.84;;;14.31;100.00
804;BME280;25687;49.976;8.240;2023-05-08T00:53:38;100451.59;;;14.30;100.00
804;BME280;25687;49.976;8.240;2023-05-08T00:56:04;100457.38;;;14.20;100.00
804;BME280;25687;49.976;8.240;2023-05-08T00:58:31;100457.03;;;14.12;100.00
804;BME280;25687;49.976;8.240;2023-05-08T01:00:56;100455.06;;;14.16;100.00
804;BME280;25687;49.976;8.240;2023-05-08T01:03:22;100450.56;;;14.05;100.00
804;BME280;25687;49.976;8.240;2023-05-08T01:05:48;100456.59;;;14.06;100.00
804;BME280;25687;49.976;8.240;2023-05-08T01:08:14;100455.03;;;14.03;100.00
804;BME280;25687;49.976;8.240;2023-05-08T01:16:29;100458.66;;;14.00;100.00
804;BME280;25687;49.976;8.240;2023-05-08T01:21:59;100455.19;;;14.14;100.00
804;BME280;25687;49.976;8.240;2023-05-08T01:27:38;100452.69;;;14.13;100.00
804;BME280;25687;49.976;8.240;2023-05-08T01:30:58;100450.88;;;14.00;100.00
804;BME280;25687;49.976;8.240;2023-05-08T01:33:07;100460.72;;;13.81;100.00
804;BME280;25687;49.976;8.240;2023-05-08T01:35:44;100462.56;;;13.79;100.00
804;BME280;25687;49.976;8.240;2023-05-08T01:41:30;100463.69;;;13.60;100.00
804;BME280;25687;49.976;8.240;2023-05-08T01:44:08;100464.06;;;13.54;100.00
804;BME280;25687;49.976;8.240;2023-05-08T01:46:35;100472.22;;;13.48;100.00
804;BME280;25687;49.976;8.240;2023-05-08T01:49:23;100465.75;;;13.40;100.00
804;BME280;25687;49.976;8.240;2023-05-08T01:51:56;100472.25;;;13.32;100.00
804;BME280;25687;49.976;8.240;2023-05-08T01:54:25;100476.53;;;13.33;100.00
804;BME280;25687;49.976;8.240;2023-05-08T01:56:54;100472.47;;;13.43;100.00
804;BME280;25687;49.976;8.240;2023-05-08T01:59:21;100475.06;;;13.43;100.00
804;BME280;25687;49.976;8.240;2023-05-08T02:01:50;100473.75;;;13.36;100.00
804;BME280;25687;49.976;8.240;2023-05-08T02:04:17;100474.25;;;13.43;100.00
804;BME280;25687;49.976;8.240;2023-05-08T02:06:43;100477.38;;;13.48;100.00
804;BME280;25687;49.976;8.240;2023-05-08T02:09:10;100474.25;;;13.43;100.00
804;BME280;25687;49.976;8.240;2023-05-08T02:11:38;100483.72;;;13.28;100.00
804;BME280;25687;49.976;8.240;2023-05-08T02:14:06;100476.44;;;13.20;100.00
804;BME280;25687;49.976;8.240;2023-05-08T02:16:33;100478.09;;;13.21;100.00
804;BME280;25687;49.976;8.240;2023-05-08T02:19:00;100482.06;;;13.27;100.00
804;BME280;25687;49.976;8.240;2023-05-08T02:21:27;100486.31;;;13.28;100.00
804;BME280;25687;49.976;8.240;2023-05-08T02:23:55;100483.88;;;13.24;100.00
804;BME280;25687;49.976;8.240;2023-05-08T02:26:22;100480.09;;;13.16;100.00
804;BME280;25687;49.976;8.240;2023-05-08T02:28:51;100479.91;;;13.04;100.00
804;BME280;25687;49.976;8.240;2023-05-08T02:31:18;100486.00;;;13.03;100.00
804;BME280;25687;49.976;8.240;2023-05-08T02:33:43;100485.28;;;13.01;100.00
804;BME280;25687;49.976;8.240;2023-05-08T02:36:10;100482.03;;;12.98;100.00
804;BME280;25687;49.976;8.240;2023-05-08T02:38:38;100493.19;;;12.98;100.00
804;BME280;25687;49.976;8.240;2023-05-08T02:41:06;100494.31;;;13.08;100.00
804;BME280;25687;49.976;8.240;2023-05-08T02:43:33;100496.25;;;13.05;100.00
804;BME280;25687;49.976;8.240;2023-05-08T02:46:18;100498.69;;;12.92;100.00
804;BME280;25687;49.976;8.240;2023-05-08T02:48:57;100496.88;;;12.94;100.00
804;BME280;25687;49.976;8.240;2023-05-08T02:51:24;100492.81;;;13.04;100.00
804;BME280;25687;49.976;8.240;2023-05-08T02:53:55;100495.66;;;13.00;100.00
804;BME280;25687;49.976;8.240;2023-05-08T02:56:33;100491.59;;;12.96;100.00
804;BME280;25687;49.976;8.240;2023-05-08T02:59:13;100496.38;;;12.87;100.00
804;BME280;25687;49.976;8.240;2023-05-08T03:01:44;100496.22;;;12.90;100.00
804;BME280;25687;49.976;8.240;2023-05-08T03:04:15;100495.50;;;13.03;100.00
804;BME280;25687;49.976;8.240;2023-05-08T03:06:45;100488.03;;;13.13;100.00
804;BME280;25687;49.976;8.240;2023-05-08T03:09:18;100494.84;;;12.99;100.00
804;BME280;25687;49.976;8.240;2023-05-08T03:11:47;100489.53;;;13.02;100.00
804;BME280;25687;49.976;8.240;2023-05-08T03:14:16;100486.19;;;13.00;100.00
804;BME280;25687;49.976;8.240;2023-05-08T03:16:44;100488.22;;;13.10;100.00
804;BME280;25687;49.976;8.240;2023-05-08T03:19:30;100492.91;;;13.03;100.00
804;BME280;25687;49.976;8.240;2023-05-08T03:21:59;100494.22;;;13.10;100.00
804;BME280;25687;49.976;8.240;2023-05-08T03:24:27;100502.16;;;13.21;100.00
804;BME280;25687;49.976;8.240;2023-05-08T03:26:55;100497.91;;;13.20;100.00
804;BME280;25687;49.976;8.240;2023-05-08T03:29:20;100499.22;;;13.28;100.00
804;BME280;25687;49.976;8.240;2023-05-08T03:31:50;100497.38;;;13.30;100.00
804;BME280;25687;49.976;8.240;2023-05-08T03:34:16;100506.22;;;13.26;100.00
804;BME280;25687;49.976;8.240;2023-05-08T03:36:43;100504.19;;;13.31;100.00
804;BME280;25687;49.976;8.240;2023-05-08T03:39:09;100496.53;;;13.15;100.00
804;BME280;25687;49.976;8.240;2023-05-08T03:41:35;100493.88;;;13.16;100.00
804;BME280;25687;49.976;8.240;2023-05-08T03:44:01;100491.16;;;13.03;100.00
804;BME280;25687;49.976;8.240;2023-05-08T03:46:29;100493.47;;;13.08;100.00
804;BME280;25687;49.976;8.240;2023-05-08T03:48:56;100497.88;;;13.06;100.00
804;BME280;25687;49.976;8.240;2023-05-08T03:51:24;100499.19;;;12.99;100.00
804;BME280;25687;49.976;8.240;2023-05-08T03:53:50;100501.88;;;13.12;100.00
804;BME280;25687;49.976;8.240;2023-05-08T03:56:15;100492.72;;;13.06;100.00
804;BME280;25687;49.976;8.240;2023-05-08T03:58:50;100495.97;;;13.10;100.00
804;BME280;25687;49.976;8.240;2023-05-08T04:01:30;100494.50;;;13.05;100.00
804;BME280;25687;49.976;8.240;2023-05-08T04:04:09;100491.25;;;13.02;100.00
804;BME280;25687;49.976;8.240;2023-05-08T04:07:09;100493.09;;;13.00;100.00
804;BME280;25687;49.976;8.240;2023-05-08T04:09:38;100492.09;;;13.02;100.00
804;BME280;25687;49.976;8.240;2023-05-08T04:12:14;100498.25;;;13.00;100.00
804;BME280;25687;49.976;8.240;2023-05-08T04:14:44;100485.63;;;12.95;100.00
804;BME280;25687;49.976;8.240;2023-05-08T04:17:14;100488.72;;;12.86;100.00
804;BME280;25687;49.976;8.240;2023-05-08T04:19:45;100498.41;;;12.82;100.00
804;BME280;25687;49.976;8.240;2023-05-08T04:22:11;100503.03;;;12.91;100.00
804;BME280;25687;49.976;8.240;2023-05-08T04:24:40;100500.41;;;12.77;100.00
804;BME280;25687;49.976;8.240;2023-05-08T04:27:08;100503.91;;;12.76;100.00
804;BME280;25687;49.976;8.240;2023-05-08T04:29:34;100504.81;;;12.75;100.00
804;BME280;25687;49.976;8.240;2023-05-08T04:31:59;100505.13;;;12.70;100.00
804;BME280;25687;49.976;8.240;2023-05-08T04:34:25;100504.34;;;12.68;100.00
804;BME280;25687;49.976;8.240;2023-05-08T04:36:50;100505.13;;;12.70;100.00
804;BME280;25687;49.976;8.240;2023-05-08T04:39:16;100505.56;;;12.77;100.00
804;BME280;25687;49.976;8.240;2023-05-08T04:41:42;100502.00;;;12.80;100.00
804;BME280;25687;49.976;8.240;2023-05-08T04:44:07;100505.47;;;12.79;100.00
804;BME280;25687;49.976;8.240;2023-05-08T04:46:32;100509.47;;;12.84;100.00
804;BME280;25687;49.976;8.240;2023-05-08T04:48:58;100518.78;;;12.87;100.00
804;BME280;25687;49.976;8.240;2023-05-08T04:51:23;100509.88;;;13.07;100.00
804;BME280;25687;49.976;8.240;2023-05-08T04:53:48;100516.97;;;13.03;100.00
804;BME280;25687;49.976;8.240;2023-05-08T04:56:13;100519.75;;;13.00;100.00
804;BME280;25687;49.976;8.240;2023-05-08T04:58:39;100516.81;;;13.06;100.00
804;BME280;25687;49.976;8.240;2023-05-08T05:01:04;100520.56;;;13.01;100.00
804;BME280;25687;49.976;8.240;2023-05-08T05:03:30;100529.44;;;12.97;100.00
804;BME280;25687;49.976;8.240;2023-05-08T05:05:59;100530.13;;;12.84;100.00
804;BME280;25687;49.976;8.240;2023-05-08T05:08:25;100529.06;;;12.72;100.00
804;BME280;25687;49.976;8.240;2023-05-08T05:10:51;100539.56;;;12.69;100.00
804;BME280;25687;49.976;8.240;2023-05-08T05:13:16;100538.56;;;12.72;100.00
804;BME280;25687;49.976;8.240;2023-05-08T05:15:42;100538.56;;;12.72;100.00
804;BME280;25687;49.976;8.240;2023-05-08T05:18:07;100546.13;;;12.75;100.00
804;BME280;25687;49.976;8.240;2023-05-08T05:20:32;100547.38;;;12.84;100.00
804;BME280;25687;49.976;8.240;2023-05-08T05:22:58;100550.56;;;12.73;100.00
804;BME280;25687;49.976;8.240;2023-05-08T05:25:23;100563.41;;;12.58;100.00
804;BME280;25687;49.976;8.240;2023-05-08T05:27:48;100562.50;;;12.43;100.00
804;BME280;25687;49.976;8.240;2023-05-08T05:30:14;100565.25;;;12.24;100.00
804;BME280;25687;49.976;8.240;2023-05-08T05:32:39;100574.50;;;11.95;100.00
804;BME280;25687;49.976;8.240;2023-05-08T05:35:04;100580.09;;;11.87;100.00
804;BME280;25687;49.976;8.240;2023-05-08T05:37:30;100581.66;;;11.90;100.00
804;BME280;25687;49.976;8.240;2023-05-08T05:39:55;100584.47;;;11.85;100.00
804;BME280;25687;49.976;8.240;2023-05-08T05:42:20;100582.31;;;11.77;100.00
804;BME280;25687;49.976;8.240;2023-05-08T05:44:46;100578.06;;;11.76;100.00
804;BME280;25687;49.976;8.240;2023-05-08T05:47:11;100581.91;;;11.85;100.00
804;BME280;25687;49.976;8.240;2023-05-08T05:49:36;100577.97;;;11.78;100.00
804;BME280;25687;49.976;8.240;2023-05-08T05:52:03;100585.22;;;11.87;100.00
804;BME280;25687;49.976;8.240;2023-05-08T05:54:28;100588.13;;;11.81;100.00
804;BME280;25687;49.976;8.240;2023-05-08T05:56:54;100588.81;;;11.85;100.00
804;BME280;25687;49.976;8.240;2023-05-08T05:59:19;100587.72;;;11.89;100.00
804;BME280;25687;49.976;8.240;2023-05-08T06:01:44;100590.38;;;12.05;100.00
804;BME280;25687;49.976;8.240;2023-05-08T06:04:09;100588.53;;;12.07;100.00
804;BME280;25687;49.976;8.240;2023-05-08T06:06:35;100591.28;;;12.04;100.00
804;BME280;25687;49.976;8.240;2023-05-08T06:09:00;100588.59;;;12.05;100.00
804;BME280;25687;49.976;8.240;2023-05-08T06:11:25;100588.13;;;12.15;100.00
804;BME280;25687;49.976;8.240;2023-05-08T06:13:50;100587.88;;;12.03;100.00
804;BME280;25687;49.976;8.240;2023-05-08T06:16:16;100593.13;;;12.18;100.00
804;BME280;25687;49.976;8.240;2023-05-08T06:18:41;100589.53;;;12.20;100.00
804;BME280;25687;49.976;8.240;2023-05-08T06:21:06;100602.84;;;12.13;100.00
804;BME280;25687;49.976;8.240;2023-05-08T06:23:32;100595.78;;;12.16;100.00
804;BME280;25687;49.976;8.240;2023-05-08T06:25:57;100592.97;;;12.21;100.00
804;BME280;25687;49.976;8.240;2023-05-08T06:28:22;100604.09;;;12.21;100.00
804;BME280;25687;49.976;8.240;2023-05-08T06:30:50;100603.03;;;12.25;100.00
804;BME280;25687;49.976;8.240;2023-05-08T06:33:15;100599.28;;;12.31;100.00
804;BME280;25687;49.976;8.240;2023-05-08T06:35:40;100597.47;;;12.33;100.00
804;BME280;25687;49.976;8.240;2023-05-08T06:38:05;100598.53;;;12.45;100.00
804;BME280;25687;49.976;8.240;2023-05-08T06:40:31;100596.28;;;12.55;100.00
804;BME280;25687;49.976;8.240;2023-05-08T06:42:56;100597.13;;;12.55;100.00
804;BME280;25687;49.976;8.240;2023-05-08T06:45:21;100600.03;;;12.65;100.00
804;BME280;25687;49.976;8.240;2023-05-08T06:47:46;100594.53;;;12.71;100.00
804;BME280;25687;49.976;8.240;2023-05-08T06:50:12;100590.34;;;12.69;100.00
804;BME280;25687;49.976;8.240;2023-05-08T06:52:37;100589.94;;;12.77;100.00
804;BME280;25687;49.976;8.240;2023-05-08T06:55:02;100593.56;;;12.88;100.00
804;BME280;25687;49.976;8.240;2023-05-08T06:57:28;100589.50;;;12.84;100.00
804;BME280;25687;49.976;8.240;2023-05-08T06:59:54;100590.31;;;12.85;100.00
804;BME280;25687;49.976;8.240;2023-05-08T07:02:20;100593.31;;;12.93;100.00
804;BME280;25687;49.976;8.240;2023-05-08T07:04:45;100589.75;;;12.80;100.00
804;BME280;25687;49.976;8.240;2023-05-08T07:07:10;100595.66;;;12.98;100.00
804;BME280;25687;49.976;8.240;2023-05-08T07:09:38;100597.56;;;12.94;100.00
804;BME280;25687;49.976;8.240;2023-05-08T07:12:03;100597.88;;;13.04;100.00
804;BME280;25687;49.976;8.240;2023-05-08T07:14:28;100604.13;;;13.00;100.00
804;BME280;25687;49.976;8.240;2023-05-08T07:16:54;100597.38;;;12.97;100.00
804;BME280;25687;49.976;8.240;2023-05-08T07:19:19;100594.81;;;12.81;100.00
804;BME280;25687;49.976;8.240;2023-05-08T07:21:44;100603.91;;;12.72;100.00
804;BME280;25687;49.976;8.240;2023-05-08T07:24:10;100600.19;;;12.78;100.00
804;BME280;25687;49.976;8.240;2023-05-08T07:26:36;100602.16;;;12.89;100.00
804;BME280;25687;49.976;8.240;2023-05-08T07:29:01;100598.38;;;12.95;100.00
804;BME280;25687;49.976;8.240;2023-05-08T07:31:27;100598.50;;;13.23;100.00
804;BME280;25687;49.976;8.240;2023-05-08T07:33:52;100596.28;;;13.17;100.00
804;BME280;25687;49.976;8.240;2023-05-08T07:36:17;100602.59;;;13.12;100.00
804;BME280;25687;49.976;8.240;2023-05-08T07:38:43;100593.75;;;12.85;100.00
804;BME280;25687;49.976;8.240;2023-05-08T07:41:08;100596.56;;;12.97;100.00
804;BME280;25687;49.976;8.240;2023-05-08T07:43:33;100603.25;;;13.15;100.00
804;BME280;25687;49.976;8.240;2023-05-08T07:45:59;100599.38;;;13.08;100.00
804;BME280;25687;49.976;8.240;2023-05-08T07:48:24;100605.59;;;13.20;100.00
804;BME280;25687;49.976;8.240;2023-05-08T07:50:49;100608.47;;;13.30;100.00
804;BME280;25687;49.976;8.240;2023-05-08T07:53:15;100597.59;;;13.69;100.00
804;BME280;25687;49.976;8.240;2023-05-08T07:55:40;100598.84;;;13.91;100.00
804;BME280;25687;49.976;8.240;2023-05-08T07:58:06;100587.38;;;14.10;100.00
804;BME280;25687;49.976;8.240;2023-05-08T08:00:32;100584.16;;;14.06;100.00
804;BME280;25687;49.976;8.240;2023-05-08T08:02:57;100590.78;;;14.25;100.00
804;BME280;25687;49.976;8.240;2023-05-08T08:05:23;100588.81;;;14.43;100.00
804;BME280;25687;49.976;8.240;2023-05-08T08:07:48;100594.31;;;14.65;100.00
804;BME280;25687;49.976;8.240;2023-05-08T08:10:13;100596.13;;;14.63;100.00
804;BME280;25687;49.976;8.240;2023-05-08T08:12:38;100601.25;;;14.92;100.00
804;BME280;25687;49.976;8.240;2023-05-08T08:15:04;100597.81;;;14.92;100.00
804;BME280;25687;49.976;8.240;2023-05-08T08:17:30;100599.53;;;15.19;100.00
804;BME280;25687;49.976;8.240;2023-05-08T08:19:55;100595.19;;;15.45;100.00
804;BME280;25687;49.976;8.240;2023-05-08T08:22:21;100596.94;;;15.19;100.00
804;BME280;25687;49.976;8.240;2023-05-08T08:24:46;100602.53;;;15.25;100.00
804;BME280;25687;49.976;8.240;2023-05-08T08:27:11;100592.91;;;15.14;100.00
804;BME280;25687;49.976;8.240;2023-05-08T08:29:37;100594.69;;;15.40;100.00
804;BME280;25687;49.976;8.240;2023-05-08T08:32:02;100597.50;;;15.49;100.00
804;BME280;25687;49.976;8.240;2023-05-08T08:34:28;100602.88;;;15.46;100.00
804;BME280;25687;49.976;8.240;2023-05-08T08:36:53;100592.41;;;15.61;100.00
804;BME280;25687;49.976;8.240;2023-05-08T08:39:19;100600.50;;;15.69;100.00
804;BME280;25687;49.976;8.240;2023-05-08T08:41:44;100603.72;;;15.86;100.00
804;BME280;25687;49.976;8.240;2023-05-08T08:44:10;100598.81;;;15.81;100.00
804;BME280;25687;49.976;8.240;2023-05-08T08:46:38;100605.78;;;16.06;100.00
804;BME280;25687;49.976;8.240;2023-05-08T08:49:08;100602.66;;;15.62;100.00
804;BME280;25687;49.976;8.240;2023-05-08T08:51:42;100608.66;;;15.24;100.00
804;BME280;25687;49.976;8.240;2023-05-08T08:54:16;100605.19;;;14.98;100.00
804;BME280;25687;49.976;8.240;2023-05-08T08:56:47;100609.78;;;15.07;100.00
804;BME280;25687;49.976;8.240;2023-05-08T08:59:15;100611.78;;;15.29;100.00
804;BME280;25687;49.976;8.240;2023-05-08T09:01:44;100615.94;;;15.32;100.00
804;BME280;25687;49.976;8.240;2023-05-08T09:04:09;100619.47;;;15.44;100.00
804;BME280;25687;49.976;8.240;2023-05-08T09:06:36;100626.25;;;15.19;100.00
804;BME280;25687;49.976;8.240;2023-05-08T09:09:02;100626.59;;;15.14;100.00
804;BME280;25687;49.976;8.240;2023-05-08T09:11:28;100624.06;;;14.73;100.00
804;BME280;25687;49.976;8.240;2023-05-08T09:13:54;100622.22;;;14.60;100.00
804;BME280;25687;49.976;8.240;2023-05-08T09:16:19;100618.16;;;14.71;100.00
804;BME280;25687;49.976;8.240;2023-05-08T09:18:45;100628.34;;;14.74;100.00
804;BME280;25687;49.976;8.240;2023-05-08T09:21:10;100631.19;;;14.69;100.00
804;BME280;25687;49.976;8.240;2023-05-08T09:23:36;100627.69;;;14.70;100.00
804;BME280;25687;49.976;8.240;2023-05-08T09:26:32;100634.44;;;14.73;100.00
804;BME280;25687;49.976;8.240;2023-05-08T09:29:08;100632.63;;;14.88;100.00
804;BME280;25687;49.976;8.240;2023-05-08T09:31:38;100628.19;;;14.90;100.00
804;BME280;25687;49.976;8.240;2023-05-08T09:34:08;100625.19;;;14.96;100.00
804;BME280;25687;49.976;8.240;2023-05-08T09:36:34;100636.13;;;14.87;100.00
804;BME280;25687;49.976;8.240;2023-05-08T09:39:01;100631.06;;;14.85;100.00
804;BME280;25687;49.976;8.240;2023-05-08T09:41:27;100635.72;;;14.80;100.00
804;BME280;25687;49.976;8.240;2023-05-08T09:44:02;100634.22;;;15.03;100.00
804;BME280;25687;49.976;8.240;2023-05-08T09:46:28;100638.41;;;15.19;100.00
804;BME280;25687;49.976;8.240;2023-05-08T09:48:56;100637.06;;;15.26;100.00
804;BME280;25687;49.976;8.240;2023-05-08T09:51:23;100631.91;;;15.26;100.00
804;BME280;25687;49.976;8.240;2023-05-08T09:53:50;100634.75;;;15.08;100.00
804;BME280;25687;49.976;8.240;2023-05-08T09:56:36;100641.28;;;15.54;100.00
804;BME280;25687;49.976;8.240;2023-05-08T09:59:21;100637.44;;;15.73;100.00
804;BME280;25687;49.976;8.240;2023-05-08T10:01:47;100636.91;;;15.93;100.00
804;BME280;25687;49.976;8.240;2023-05-08T10:04:15;100633.47;;;15.80;100.00
804;BME280;25687;49.976;8.240;2023-05-08T10:06:40;100639.94;;;16.00;100.00
804;BME280;25687;49.976;8.240;2023-05-08T10:09:07;100637.13;;;16.03;100.00
804;BME280;25687;49.976;8.240;2023-05-08T10:11:32;100638.16;;;16.01;100.00
804;BME280;25687;49.976;8.240;2023-05-08T10:13:58;100638.66;;;15.80;100.00
804;BME280;25687;49.976;8.240;2023-05-08T10:16:26;100634.22;;;15.69;100.00
804;BME280;25687;49.976;8.240;2023-05-08T10:18:54;100634.75;;;16.00;100.00
804;BME280;25687;49.976;8.240;2023-05-08T10:21:24;100629.94;;;15.81;100.00
804;BME280;25687;49.976;8.240;2023-05-08T10:23:55;100640.84;;;16.12;100.00
804;BME280;25687;49.976;8.240;2023-05-08T10:26:26;100646.56;;;16.04;100.00
804;BME280;25687;49.976;8.240;2023-05-08T10:28:58;100632.47;;;15.82;100.00
804;BME280;25687;49.976;8.240;2023-05-08T10:31:24;100630.88;;;16.06;100.00
804;BME280;25687;49.976;8.240;2023-05-08T10:33:54;100633.56;;;16.17;100.00
804;BME280;25687;49.976;8.240;2023-05-08T10:36:22;100632.03;;;16.52;100.00
804;BME280;25687;49.976;8.240;2023-05-08T10:38:48;100635.16;;;16.44;100.00
804;BME280;25687;49.976;8.240;2023-05-08T10:41:14;100645.00;;;16.14;100.00
804;BME280;25687;49.976;8.240;2023-05-08T10:43:41;100636.94;;;16.06;100.00
804;BME280;25687;49.976;8.240;2023-05-08T10:46:16;100638.78;;;15.91;100.00
804;BME280;25687;49.976;8.240;2023-05-08T10:49:02;100629.94;;;15.81;100.00
804;BME280;25687;49.976;8.240;2023-05-08T10:51:52;100632.34;;;15.97;100.00
804;BME280;25687;49.976;8.240;2023-05-08T10:54:57;100633.59;;;16.04;100.00
804;BME280;25687;49.976;8.240;2023-05-08T10:57:30;100628.06;;;16.22;100.00
804;BME280;25687;49.976;8.240;2023-05-08T10:59:56;100623.53;;;16.12;100.00
804;BME280;25687;49.976;8.240;2023-05-08T11:02:28;100625.72;;;15.93;100.00
804;BME280;25687;49.976;8.240;2023-05-08T11:05:13;100627.91;;;15.86;100.00
804;BME280;25687;49.976;8.240;2023-05-08T11:07:53;100629.25;;;15.92;100.00
804;BME280;25687;49.976;8.240;2023-05-08T11:10:19;100622.72;;;15.86;100.00
804;BME280;25687;49.976;8.240;2023-05-08T11:12:47;100621.75;;;16.13;100.00
804;BME280;25687;49.976;8.240;2023-05-08T11:15:13;100624.38;;;15.87;100.00
804;BME280;25687;49.976;8.240;2023-05-08T11:17:38;100620.50;;;15.80;100.00
804;BME280;25687;49.976;8.240;2023-05-08T11:20:04;100622.91;;;15.96;100.00
804;BME280;25687;49.976;8.240;2023-05-08T11:22:31;100615.53;;;15.90;100.00
804;BME280;25687;49.976;8.240;2023-05-08T11:33:11;100614.59;;;16.04;100.00
804;BME280;25687;49.976;8.240;2023-05-08T11:38:31;100611.91;;;16.42;100.00
804;BME280;25687;49.976;8.240;2023-05-08T11:40:59;100615.13;;;16.46;100.00
804;BME280;25687;49.976;8.240;2023-05-08T11:46:01;100607.03;;;16.38;100.00
804;BME280;25687;49.976;8.240;2023-05-08T11:48:31;100613.41;;;16.21;100.00
804;BME280;25687;49.976;8.240;2023-05-08T11:50:57;100612.38;;;16.23;100.00
804;BME280;25687;49.976;8.240;2023-05-08T11:53:23;100606.47;;;16.58;100.00
804;BME280;25687;49.976;8.240;2023-05-08T11:55:49;100602.22;;;16.44;100.00
804;BME280;25687;49.976;8.240;2023-05-08T11:58:16;100613.09;;;16.62;100.00
804;BME280;25687;49.976;8.240;2023-05-08T12:00:42;100611.75;;;16.57;100.00
804;BME280;25687;49.976;8.240;2023-05-08T12:03:17;100618.66;;;16.45;100.00
804;BME280;25687;49.976;8.240;2023-05-08T12:05:42;100616.94;;;16.20;100.00
804;BME280;25687;49.976;8.240;2023-05-08T12:08:09;100618.22;;;16.14;100.00
804;BME280;25687;49.976;8.240;2023-05-08T12:10:55;100611.97;;;16.17;100.00
804;BME280;25687;49.976;8.240;2023-05-08T12:13:22;100611.31;;;16.39;100.00
804;BME280;25687;49.976;8.240;2023-05-08T12:15:53;100618.69;;;16.32;100.00
804;BME280;25687;49.976;8.240;2023-05-08T12:18:20;100610.50;;;16.25;100.00
804;BME280;25687;49.976;8.240;2023-05-08T12:20:51;100610.75;;;16.09;100.00
804;BME280;25687;49.976;8.240;2023-05-08T12:23:16;100610.88;;;15.95;100.00
804;BME280;25687;49.976;8.240;2023-05-08T12:25:42;100612.59;;;16.20;100.00
804;BME280;25687;49.976;8.240;2023-05-08T12:28:10;100615.16;;;16.33;100.00
804;BME280;25687;49.976;8.240;2023-05-08T12:30:36;100608.28;;;16.45;100.00
804;BME280;25687;49.976;8.240;2023-05-08T12:33:03;100612.81;;;16.17;100.00
804;BME280;25687;49.976;8.240;2023-05-08T12:35:29;100607.78;;;16.27;100.00
804;BME280;25687;49.976;8.240;2023-05-08T12:38:00;100612.78;;;16.30;100.00
804;BME280;25687;49.976;8.240;2023-05-08T12:40:34;100606.97;;;16.26;100.00
804;BME280;25687;49.976;8.240;2023-05-08T12:43:01;100615.66;;;16.38;100.00
804;BME280;25687;49.976;8.240;2023-05-08T12:45:29;100614.47;;;16.18;100.00
804;BME280;25687;49.976;8.240;2023-05-08T12:48:03;100613.66;;;16.18;100.00
804;BME280;25687;49.976;8.240;2023-05-08T12:50:33;100614.84;;;16.38;100.00
804;BME280;25687;49.976;8.240;2023-05-08T12:53:06;100613.72;;;16.53;100.00
804;BME280;25687;49.976;8.240;2023-05-08T12:55:35;100610.97;;;16.43;100.00
804;BME280;25687;49.976;8.240;2023-05-08T12:58:06;100614.47;;;16.18;100.00
804;BME280;25687;49.976;8.240;2023-05-08T13:00:39;100608.03;;;16.24;100.00
804;BME280;25687;49.976;8.240;2023-05-08T13:03:06;100608.22;;;16.21;100.00
804;BME280;25687;49.976;8.240;2023-05-08T13:05:33;100606.72;;;16.05;100.00
804;BME280;25687;49.976;8.240;2023-05-08T13:08:00;100603.03;;;16.21;100.00
804;BME280;25687;49.976;8.240;2023-05-08T13:10:51;100603.00;;;16.58;100.00
804;BME280;25687;49.976;8.240;2023-05-08T13:13:21;100606.06;;;16.76;100.00
804;BME280;25687;49.976;8.240;2023-05-08T13:15:48;100598.47;;;16.73;100.00
804;BME280;25687;49.976;8.240;2023-05-08T13:18:15;100597.44;;;17.00;100.00
804;BME280;25687;49.976;8.240;2023-05-08T13:20:40;100598.59;;;16.71;100.00
804;BME280;25687;49.976;8.240;2023-05-08T13:23:07;100599.03;;;16.89;100.00
804;BME280;25687;49.976;8.240;2023-05-08T13:25:34;100599.66;;;16.93;100.00
804;BME280;25687;49.976;8.240;2023-05-08T13:28:00;100592.53;;;17.08;100.00
804;BME280;25687;49.976;8.240;2023-05-08T13:30:26;100593.31;;;16.97;100.00
804;BME280;25687;49.976;8.240;2023-05-08T13:32:51;100597.63;;;17.21;100.00